Home > Products > Valid Products > MTR

000
SAUS43 KMQT 281857
MTRP53
METAR KP53 281856Z AUTO 18011G19KT M04/M19 A3049 RMK AO1 SLP340
T10441194





000
SAUS43 KMQT 281853
MTRP59
METAR KP59 281851Z AUTO 24008KT 200V260 M06/M14 A3043 RMK AO1 SLP323
T10611144





000
SAUS43 KMQT 281757
MTRP53
METAR KP53 281756Z AUTO 21009KT M06/M19 A3053 RMK AO1 SLP351
T10561194 11056 21189 58009





000
SAUS43 KMQT 281757
MTRP53
METAR KP53 281756Z AUTO 21009KT M06/M19 A3053 RMK AO1 SLP351
T10561194 11056 21189 58009





000
SAUS43 KMQT 281754
MTRP59
METAR KP59 281751Z AUTO 36005KT M07/M13 A3045 RMK AO1 SLP333
T10721133 11067 21128 58007





000
SAUS43 KMQT 281754
MTRP59
METAR KP59 281751Z AUTO 36005KT M07/M13 A3045 RMK AO1 SLP333
T10721133 11067 21128 58007





000
SAUS43 KMQT 281658
MTRP53
METAR KP53 281656Z AUTO 18008KT M07/M18 A3054 RMK AO1 SLP356
T10671183





000
SAUS43 KMQT 281658
MTRP53
METAR KP53 281656Z AUTO 18008KT M07/M18 A3054 RMK AO1 SLP356
T10671183





000
SAUS43 KMQT 281652
MTRP59
METAR KP59 281651Z AUTO 36009KT M09/M14 A3046 RMK AO1 SLP336
T10891144





000
SAUS43 KMQT 281652
MTRP59
METAR KP59 281651Z AUTO 36009KT M09/M14 A3046 RMK AO1 SLP336
T10891144





000
SAUS43 KMQT 281558
MTRP53
METAR KP53 281556Z AUTO 19003KT M09/M19 A3055 RMK AO1 SLP361
T10891189





000
SAUS43 KMQT 281554
MTRP59
METAR KP59 281551Z AUTO 00000KT M08/M17 A3047 RMK AO1 SLP340
T10831172





000
SAUS43 KMQT 281457
MTRP53
METAR KP53 281456Z AUTO 17005KT M13/M20 A3055 RMK AO1 SLP363
T11281200 53007





000
SAUS43 KMQT 281457
MTRP53
METAR KP53 281456Z AUTO 17005KT M13/M20 A3055 RMK AO1 SLP363
T11281200 53007





000
SAUS43 KMQT 281454
MTRP59
METAR KP59 281451Z AUTO 25004KT M09/M17 A3048 RMK AO1 SLP342
T10941172 53008





000
SAUS43 KMQT 281357
MTRP53
METAR KP53 281356Z AUTO 17007KT M17/M22 A3054 RMK AO1 SLP361
T11671222





000
SAUS43 KMQT 281357
MTRP53
METAR KP53 281356Z AUTO 17007KT M17/M22 A3054 RMK AO1 SLP361
T11671222





000
SAUS43 KMQT 281354
MTRP59
METAR KP59 281351Z AUTO VRB03KT M11/M18 A3046 RMK AO1 SLP341
T11111178





000
SAUS43 KMQT 281354
MTRP59
METAR KP59 281351Z AUTO VRB03KT M11/M18 A3046 RMK AO1 SLP341
T11111178





000
SAUS43 KMQT 281257
MTRP53
METAR KP53 281256Z AUTO 18009KT M18/M23 A3053 RMK AO1 SLP357
T11831233





000
SAUS43 KMQT 281257
MTRP53
METAR KP53 281256Z AUTO 18009KT M18/M23 A3053 RMK AO1 SLP357
T11831233





000
SAUS43 KMQT 281252
MTRP59
METAR KP59 281251Z AUTO VRB04KT M12/M18 A3045 RMK AO1 SLP336
T11171183





000
SAUS43 KMQT 281252
MTRP59
METAR KP59 281251Z AUTO VRB04KT M12/M18 A3045 RMK AO1 SLP336
T11171183





000
SAUS43 KMQT 281157
MTRP53
METAR KP53 281156Z AUTO 17008KT M18/M23 A3053 RMK AO1 SLP357 70006
T11831233 11139 21194 53014





000
SAUS43 KMQT 281157
MTRP53
METAR KP53 281156Z AUTO 17008KT M18/M23 A3053 RMK AO1 SLP357 70006
T11831233 11139 21194 53014





000
SAUS43 KMQT 281154
MTRP59
METAR KP59 281151Z AUTO VRB04KT M12/M18 A3045 RMK AO1 SLP335
T11171178 11089 21117 53013





000
SAUS43 KMQT 281154
MTRP59
METAR KP59 281151Z AUTO VRB04KT M12/M18 A3045 RMK AO1 SLP335
T11171178 11089 21117 53013





000
SAUS43 KMQT 281058
MTRP53
METAR KP53 281056Z AUTO 17010KT M19/M24 A3051 RMK AO1 SLP350
T11891239





000
SAUS43 KMQT 281058
MTRP53
METAR KP53 281056Z AUTO 17010KT M19/M24 A3051 RMK AO1 SLP350
T11891239





000
SAUS43 KMQT 281054
MTRP59
METAR KP59 281051Z AUTO VRB05KT M10/M18 A3044 RMK AO1 SLP329
T11001178





000
SAUS43 KMQT 281054
MTRP59
METAR KP59 281051Z AUTO VRB05KT M10/M18 A3044 RMK AO1 SLP329
T11001178





000
SAUS43 KMQT 280957
MTRP53
METAR KP53 280956Z AUTO 18007KT M19/M23 A3050 RMK AO1 SLP344
T11891233





000
SAUS43 KMQT 280957
MTRP53
METAR KP53 280956Z AUTO 18007KT M19/M23 A3050 RMK AO1 SLP344
T11891233





000
SAUS43 KMQT 280954
MTRP59
METAR KP59 280951Z AUTO 31009G16KT M09/M18 A3042 RMK AO1 SLP321
T10941178





000
SAUS43 KMQT 280954
MTRP59
METAR KP59 280951Z AUTO 31009G16KT M09/M18 A3042 RMK AO1 SLP321
T10941178





000
SAUS43 KMQT 280857
MTRP53
METAR KP53 280856Z AUTO 18007KT M19/M23 A3049 RMK AO1 SLP342
T11891228 51008





000
SAUS43 KMQT 280854
MTRP59
METAR KP59 280851Z AUTO 30007KT M09/M18 A3041 RMK AO1 SLP320
T10941183 51010





000
SAUS43 KMQT 280757
MTRP53
METAR KP53 280756Z AUTO 17006KT M18/M23 A3049 RMK AO1 SLP341
T11781228





000
SAUS43 KMQT 280754
MTRP59
METAR KP59 280751Z AUTO VRB04KT M10/M19 A3041 RMK AO1 SLP319
T11001189





000
SAUS43 KMQT 280657
MTRP53
METAR KP53 280656Z AUTO 16006KT M19/M22 A3048 RMK AO1 SLP339
T11891222





000
SAUS43 KMQT 280657
MTRP53
METAR KP53 280656Z AUTO 16006KT M19/M22 A3048 RMK AO1 SLP339
T11891222





000
SAUS43 KMQT 280653
MTRP59
METAR KP59 280651Z AUTO 29008G16KT 250V320 M09/M19 A3040 RMK AO1
SLP314 T10891189





000
SAUS43 KMQT 280653
MTRP59
METAR KP59 280651Z AUTO 29008G16KT 250V320 M09/M19 A3040 RMK AO1
SLP314 T10891189





000
SAUS43 KMQT 280605 COR
MTRP53
METAR KP53 280556Z AUTO 22007KT M14/M19 A3047 RMK AO1 SLP333
T11391194 11117 21161 53011





000
SAUS43 KMQT 280605 COR
MTRP53
METAR KP53 280556Z AUTO 22007KT M14/M19 A3047 RMK AO1 SLP333
T11391194 11117 21161 53011





000
SAUS43 KMQT 280552
MTRP59
METAR KP59 280551Z AUTO VRB06KT M09/M19 A3038 RMK AO1 SLP310
T10941194 11083 21156 51004





000
SAUS43 KMQT 280552
MTRP59
METAR KP59 280551Z AUTO VRB06KT M09/M19 A3038 RMK AO1 SLP310
T10941194 11083 21156 51004





000
SAUS43 KMQT 280457
MTRP53
METAR KP53 280456Z AUTO 21009KT M13/M18 A3045 RMK AO1 SLP328
T11331183 410891250





000
SAUS43 KMQT 280457
MTRP53
METAR KP53 280456Z AUTO 21009KT M13/M18 A3045 RMK AO1 SLP328
T11331183 410891250





000
SAUS43 KMQT 280452
MTRP59
METAR KP59 280451Z AUTO 29008KT 260V340 M08/M20 A3038 RMK AO1 SLP307
T10831200 410831167





000
SAUS43 KMQT 280452
MTRP59
METAR KP59 280451Z AUTO 29008KT 260V340 M08/M20 A3038 RMK AO1 SLP307
T10831200 410831167





000
SAUS43 KMQT 280357
MTRP53
METAR KP53 280356Z AUTO 22008KT M12/M18 A3044 RMK AO1 SLP325
T11221178





000
SAUS43 KMQT 280357
MTRP53
METAR KP53 280356Z AUTO 22008KT M12/M18 A3044 RMK AO1 SLP325
T11221178





000
SAUS43 KMQT 280353
MTRP59
METAR KP59 280351Z AUTO 27004KT M09/M21 A3038 RMK AO1 SLP311
T10941211





000
SAUS43 KMQT 280353
MTRP59
METAR KP59 280351Z AUTO 27004KT M09/M21 A3038 RMK AO1 SLP311
T10941211





000
SAUS43 KMQT 280257
MTRP53
METAR KP53 280256Z AUTO 21007KT M12/M18 A3043 RMK AO1 SLP324
T11221183 53006





000
SAUS43 KMQT 280257
MTRP53
METAR KP53 280256Z AUTO 21007KT M12/M18 A3043 RMK AO1 SLP324
T11221183 53006





000
SAUS43 KMQT 280254
MTRP59
METAR KP59 280251Z AUTO VRB05KT M11/M21 A3037 RMK AO1 SLP308
T11061211 50004





000
SAUS43 KMQT 280254
MTRP59
METAR KP59 280251Z AUTO VRB05KT M11/M21 A3037 RMK AO1 SLP308
T11061211 50004





000
SAUS43 KMQT 280157
MTRP53
METAR KP53 280156Z AUTO 20007KT M13/M18 A3042 RMK AO1 SLP320
T11281183





000
SAUS43 KMQT 280157
MTRP53
METAR KP53 280156Z AUTO 20007KT M13/M18 A3042 RMK AO1 SLP320
T11281183





000
SAUS43 KMQT 280153
MTRP59
METAR KP59 280151Z AUTO 00000KT M14/M22 A3038 RMK AO1 SLP312
T11441217





000
SAUS43 KMQT 280153
MTRP59
METAR KP59 280151Z AUTO 00000KT M14/M22 A3038 RMK AO1 SLP312
T11441217





000
SAUS43 KMQT 280057
MTRP53
METAR KP53 280056Z AUTO 20005KT M15/M19 A3043 RMK AO1 SLP324
T11501189





000
SAUS43 KMQT 280057
MTRP53
METAR KP53 280056Z AUTO 20005KT M15/M19 A3043 RMK AO1 SLP324
T11501189





000
SAUS43 KMQT 280054
MTRP59
METAR KP59 280051Z AUTO 00000KT M13/M21 A3037 RMK AO1 SLP309
T11331211





000
SAUS43 KMQT 280054
MTRP59
METAR KP59 280051Z AUTO 00000KT M13/M21 A3037 RMK AO1 SLP309
T11331211





000
SAUS43 KMQT 272357
MTRP53
METAR KP53 272356Z AUTO 00000KT M16/M19 A3042 RMK AO1 SLP320
T11561194 11089 21161 53004





000
SAUS43 KMQT 272357
MTRP53
METAR KP53 272356Z AUTO 00000KT M16/M19 A3042 RMK AO1 SLP320
T11561194 11089 21161 53004





000
SAUS43 KMQT 272353
MTRP59
METAR KP59 272351Z AUTO 00000KT M12/M21 A3036 RMK AO1 SLP306
T11171206 11083 21122 50000





000
SAUS43 KMQT 272353
MTRP59
METAR KP59 272351Z AUTO 00000KT M12/M21 A3036 RMK AO1 SLP306
T11171206 11083 21122 50000





000
SAUS43 KMQT 272257
MTRP53
METAR KP53 272256Z AUTO 33003KT M13/M19 A3040 RMK AO1 SLP313
T11331189





000
SAUS43 KMQT 272257
MTRP53
METAR KP53 272256Z AUTO 33003KT M13/M19 A3040 RMK AO1 SLP313
T11331189





000
SAUS43 KMQT 272252
MTRP59
METAR KP59 272251Z AUTO 26006KT M10/M20 A3036 RMK AO1 SLP304
T11001200





000
SAUS43 KMQT 272252
MTRP59
METAR KP59 272251Z AUTO 26006KT M10/M20 A3036 RMK AO1 SLP304
T11001200





000
SAUS43 KMQT 272157
MTRP53
METAR KP53 272156Z AUTO VRB03KT M12/M17 A3040 RMK AO1 SLP312
T11171172





000
SAUS43 KMQT 272157
MTRP53
METAR KP53 272156Z AUTO VRB03KT M12/M17 A3040 RMK AO1 SLP312
T11171172





000
SAUS43 KMQT 272154
MTRP59
METAR KP59 272151Z AUTO VRB06KT M09/M17 A3036 RMK AO1 SLP307
T10941172





000
SAUS43 KMQT 272057
MTRP53
METAR KP53 272056Z AUTO 02003KT M10/M17 A3040 RMK AO1 SLP314
T11001167 56012





000
SAUS43 KMQT 272054
MTRP59
METAR KP59 272051Z AUTO 35008KT M08/M20 A3036 RMK AO1 SLP304
T10831200 56008





000
SAUS43 KMQT 271957
MTRP53
METAR KP53 271956Z AUTO 01003KT M10/M17 A3041 RMK AO1 SLP316
T11001167





000
SAUS43 KMQT 271957
MTRP53
METAR KP53 271956Z AUTO 01003KT M10/M17 A3041 RMK AO1 SLP316
T11001167





000
SAUS43 KMQT 271953
MTRP59
METAR KP59 271951Z AUTO 32007G15KT 280V350 M09/M19 A3037 RMK AO1
SLP307 T10891194





000
SAUS43 KMQT 271953
MTRP59
METAR KP59 271951Z AUTO 32007G15KT 280V350 M09/M19 A3037 RMK AO1
SLP307 T10891194





000
SAUS43 KMQT 271857
MTRP53
METAR KP53 271856Z AUTO 06003KT M10/M19 A3042 RMK AO1 SLP320
T11001189





000
SAUS43 KMQT 271857
MTRP53
METAR KP53 271856Z AUTO 06003KT M10/M19 A3042 RMK AO1 SLP320
T11001189





000
SAUS43 KMQT 271854
MTRP59
METAR KP59 271851Z AUTO 35016KT M11/M17 A3037 RMK AO1 SLP308
T11061167





000
SAUS43 KMQT 271854
MTRP59
METAR KP59 271851Z AUTO 35016KT M11/M17 A3037 RMK AO1 SLP308
T11061167





000
SAUS43 KMQT 271757
MTRP53
METAR KP53 271756Z AUTO 05005KT M11/M18 A3044 RMK AO1 SLP326 P0001
60006 T11111183 11100 21244 50004





000
SAUS43 KMQT 271757
MTRP53
METAR KP53 271756Z AUTO 05005KT M11/M18 A3044 RMK AO1 SLP326 P0001
60006 T11111183 11100 21244 50004





000
SAUS43 KMQT 271754
MTRP59
METAR KP59 271751Z AUTO 34011G17KT M10/M18 A3038 RMK AO1 SLP313
T11001183 11094 21161 53004





000
SAUS43 KMQT 271754
MTRP59
METAR KP59 271751Z AUTO 34011G17KT M10/M18 A3038 RMK AO1 SLP313
T11001183 11094 21161 53004





000
SAUS43 KMQT 271657
MTRP53
METAR KP53 271656Z AUTO 05006KT M12/M19 A3044 RMK AO1 SLP327
T11221194





000
SAUS43 KMQT 271657
MTRP53
METAR KP53 271656Z AUTO 05006KT M12/M19 A3044 RMK AO1 SLP327
T11221194





000
SAUS43 KMQT 271653
MTRP59
METAR KP59 271651Z AUTO 33009G19KT M11/M18 A3037 RMK AO1 SLP311
T11061183





000
SAUS43 KMQT 271653
MTRP59
METAR KP59 271651Z AUTO 33009G19KT M11/M18 A3037 RMK AO1 SLP311
T11061183





000
SAUS43 KMQT 271557
MTRP53
METAR KP53 271556Z AUTO 07004KT M14/M21 A3044 RMK AO1 SLP326 P0005
T11391206





000
SAUS43 KMQT 271552
MTRP59
METAR KP59 271551Z AUTO 34014G22KT M12/M18 A3038 RMK AO1 SLP311
T11171183





000
SAUS43 KMQT 271457
MTRP53
METAR KP53 271456Z AUTO 00000KT M19/M22 A3043 RMK AO1 SLP324
T11941222 53013





000
SAUS43 KMQT 271457
MTRP53
METAR KP53 271456Z AUTO 00000KT M19/M22 A3043 RMK AO1 SLP324
T11941222 53013





000
SAUS43 KMQT 271453
MTRP59
METAR KP59 271451Z AUTO 33008G16KT 300V360 M12/M19 A3037 RMK AO1
SLP309 T11221189 51010





000
SAUS43 KMQT 271453
MTRP59
METAR KP59 271451Z AUTO 33008G16KT 300V360 M12/M19 A3037 RMK AO1
SLP309 T11221189 51010





000
SAUS43 KMQT 271357
MTRP53
METAR KP53 271356Z AUTO 18007KT M22/M25 A3041 RMK AO1 SLP320
T12171250





000
SAUS43 KMQT 271357
MTRP53
METAR KP53 271356Z AUTO 18007KT M22/M25 A3041 RMK AO1 SLP320
T12171250





000
SAUS43 KMQT 271354
MTRP59
METAR KP59 271351Z AUTO 30007KT 280V350 M14/M20 A3037 RMK AO1 SLP308
T11391200





000
SAUS43 KMQT 271354
MTRP59
METAR KP59 271351Z AUTO 30007KT 280V350 M14/M20 A3037 RMK AO1 SLP308
T11391200





000
SAUS43 KMQT 271257
MTRP53
METAR KP53 271256Z AUTO 18008KT M24/M28 A3040 RMK AO1 SLP314
T12441278





000
SAUS43 KMQT 271254
MTRP59
METAR KP59 271251Z AUTO 31005KT M16/M21 A3035 RMK AO1 SLP303
T11561211





000
SAUS43 KMQT 271157
MTRP53
METAR KP53 271156Z AUTO 18009KT M24/M28 A3039 RMK AO1 SLP311 70007
T12441278 11228 21250 53014





000
SAUS43 KMQT 271154
MTRP59
METAR KP59 271151Z AUTO VRB04KT M16/M21 A3034 RMK AO1 SLP301
T11611211 11150 21167 51005





000
SAUS43 KMQT 271057
MTRP53
METAR KP53 271056Z AUTO 18008KT M24/M27 A3037 RMK AO1 SLP303
T12391272





000
SAUS43 KMQT 271054
MTRP59
METAR KP59 271051Z AUTO 33007KT M16/M21 A3034 RMK AO1 SLP300
T11611211





000
SAUS43 KMQT 270957
MTRP53
METAR KP53 270956Z AUTO 18008KT M24/M27 A3035 RMK AO1 SLP298
T12391272





000
SAUS43 KMQT 270953
MTRP59
METAR KP59 270951Z AUTO 30006KT M17/M22 A3033 RMK AO1 SLP299
T11671217





000
SAUS43 KMQT 270857
MTRP53
METAR KP53 270856Z AUTO 18009KT M23/M27 A3035 RMK AO1 SLP296
T12331272 51002





000
SAUS43 KMQT 270854
MTRP59
METAR KP59 270851Z AUTO 29005KT M17/M21 A3032 RMK AO1 SLP296
T11671211 50001





000
SAUS43 KMQT 270757
MTRP53
METAR KP53 270756Z AUTO 18010KT M23/M27 A3035 RMK AO1 SLP295
T12331272





000
SAUS43 KMQT 270753
MTRP59
METAR KP59 270751Z AUTO VRB06KT M16/M21 A3032 RMK AO1 SLP295
T11561206





000
SAUS43 KMQT 270657
MTRP53
METAR KP53 270656Z AUTO 17007KT M23/M26 A3035 RMK AO1 SLP295
T12281261





000
SAUS43 KMQT 270652
MTRP59
METAR KP59 270651Z AUTO 32004KT M16/M20 A3032 RMK AO1 SLP294
T11561200





000
SAUS43 KMQT 270557
MTRP53
METAR KP53 270556Z AUTO 19007KT M23/M26 A3034 RMK AO1 SLP293 60001
T12281261 11172 21239 58004





000
SAUS43 KMQT 270553
MTRP59
METAR KP59 270551Z AUTO 34006KT M16/M20 A3032 RMK AO1 SLP295
T11561200 11133 21161 51008





000
SAUS43 KMQT 270457
MTRP53
METAR KP53 270456Z AUTO 20007KT M24/M27 A3034 RMK AO1 SLP295
T12391272 411331278





000
SAUS43 KMQT 270457
MTRP53
METAR KP53 270456Z AUTO 20007KT M24/M27 A3034 RMK AO1 SLP295
T12391272 411331278





000
SAUS43 KMQT 270454
MTRP59
METAR KP59 270451Z AUTO 35010KT M15/M20 A3031 RMK AO1 SLP291
T11501200 411331228





000
SAUS43 KMQT 270357
MTRP53
METAR KP53 270356Z AUTO 18007KT M23/M27 A3035 RMK AO1 SLP298
T12331267





000
SAUS43 KMQT 270257
MTRP53
METAR KP53 270256Z AUTO 18007KT M22/M26 A3035 RMK AO1 SLP300 60001
T12221256 51010





000
SAUS43 KMQT 270252
MTRP59
METAR KP59 270251Z AUTO 32007G16KT 280V340 M14/M19 A3029 RMK AO1
SLP285 T11391194 53001





000
SAUS43 KMQT 270157
MTRP53
METAR KP53 270156Z AUTO 18006KT M21/M24 A3034 RMK AO1 SLP297 P0001
T12111244





000
SAUS43 KMQT 270152
MTRP59
METAR KP59 270151Z AUTO 32007G16KT M14/M21 A3029 RMK AO1 SLP286
T11441206





000
SAUS43 KMQT 270057
MTRP53
METAR KP53 270056Z AUTO 18005KT M19/M23 A3034 RMK AO1 SLP296
T11941228





000
SAUS43 KMQT 270054
MTRP59
METAR KP59 270051Z AUTO 31008KT M15/M21 A3029 RMK AO1 SLP288
T11501206





000
SAUS43 KMQT 262357
MTRP53
METAR KP53 262356Z AUTO 00000KT M17/M22 A3032 RMK AO1 SLP290 60001
T11721222 11133 21178 53001





000
SAUS43 KMQT 262357
MTRP53
METAR KP53 262356Z AUTO 00000KT M17/M22 A3032 RMK AO1 SLP290 60001
T11721222 11133 21178 53001





000
SAUS43 KMQT 262352
MTRP59
METAR KP59 262351Z AUTO VRB06KT M16/M21 A3029 RMK AO1 SLP289
T11611211 11150 21167 58007





000
SAUS43 KMQT 262352
MTRP59
METAR KP59 262351Z AUTO VRB06KT M16/M21 A3029 RMK AO1 SLP289
T11611211 11150 21167 58007





000
SAUS43 KMQT 262258
MTRP53
METAR KP53 262256Z AUTO 33006KT M16/M22 A3032 RMK AO1 SLP288
T11561217





000
SAUS43 KMQT 262258
MTRP53
METAR KP53 262256Z AUTO 33006KT M16/M22 A3032 RMK AO1 SLP288
T11561217





000
SAUS43 KMQT 262254
MTRP59
METAR KP59 262251Z AUTO 31009G18KT M16/M22 A3030 RMK AO1 SLP291
T11561217





000
SAUS43 KMQT 262154
MTRP59
METAR KP59 262151Z AUTO 33011G19KT M16/M21 A3031 RMK AO1 SLP291
T11561211





000
SAUS43 KMQT 262154
MTRP59
METAR KP59 262151Z AUTO 33011G19KT M16/M21 A3031 RMK AO1 SLP291
T11561211





000
SAUS43 KMQT 262057
MTRP53
METAR KP53 262056Z AUTO 34013KT M14/M21 A3032 RMK AO1 SLP287 P0001
60001 T11441206 55002





000
SAUS43 KMQT 262053
MTRP59
METAR KP59 262051Z AUTO 33011G19KT M16/M22 A3031 RMK AO1 SLP293
T11561217 55011





000
SAUS43 KMQT 261957
MTRP53
METAR KP53 261956Z AUTO 33010KT M14/M19 A3031 RMK AO1 SLP284
T11391194





000
SAUS43 KMQT 261954
MTRP59
METAR KP59 261951Z AUTO 34015G20KT M16/M22 A3031 RMK AO1 SLP291
T11561217





000
SAUS43 KMQT 261857
MTRP53
METAR KP53 261856Z AUTO 34006KT M13/M19 A3032 RMK AO1 SLP287
T11331194





000
SAUS43 KMQT 261857
MTRP53
METAR KP53 261856Z AUTO 34006KT M13/M19 A3032 RMK AO1 SLP287
T11331194





000
SAUS43 KMQT 261853
MTRP59
METAR KP59 261851Z AUTO 34014KT M16/M22 A3033 RMK AO1 SLP298
T11611222





000
SAUS43 KMQT 261757
MTRP53
METAR KP53 261756Z AUTO 31010KT M14/M21 A3033 RMK AO1 SLP289 P0001
60005 T11441211 11144 21278 50006





000
SAUS43 KMQT 261757
MTRP53
METAR KP53 261756Z AUTO 31010KT M14/M21 A3033 RMK AO1 SLP289 P0001
60005 T11441211 11144 21278 50006





000
SAUS43 KMQT 261752
MTRP59
METAR KP59 261751Z AUTO 34013KT M17/M22 A3035 RMK AO1 SLP304
T11671222 11167 21228 51008





000
SAUS43 KMQT 261657
MTRP53
METAR KP53 261656Z AUTO 33009KT M15/M22 A3033 RMK AO1 SLP289 P0002
T11501222





000
SAUS43 KMQT 261652
MTRP59
METAR KP59 261651Z AUTO 36012KT M17/M22 A3034 RMK AO1 SLP301
T11671217





000
SAUS43 KMQT 261652
MTRP59
METAR KP59 261651Z AUTO 36012KT M17/M22 A3034 RMK AO1 SLP301
T11671217





000
SAUS43 KMQT 261557
MTRP53
METAR KP53 261556Z AUTO 03003KT M17/M23 A3032 RMK AO1 SLP289 P0002
T11671228





000
SAUS43 KMQT 261553
MTRP59
METAR KP59 261551Z AUTO 01010KT M17/M22 A3034 RMK AO1 SLP301
T11721217





000
SAUS43 KMQT 261458
MTRP53
METAR KP53 261456Z AUTO 00000KT M23/M25 A3031 RMK AO1 SLP285
T12331250 51019





000
SAUS43 KMQT 261458
MTRP53
METAR KP53 261456Z AUTO 00000KT M23/M25 A3031 RMK AO1 SLP285
T12331250 51019





000
SAUS43 KMQT 261454
MTRP59
METAR KP59 261451Z AUTO 36007KT M17/M22 A3032 RMK AO1 SLP297
T11721217 53016





000
SAUS43 KMQT 261357
MTRP53
METAR KP53 261356Z AUTO 18006KT M25/M28 A3030 RMK AO1 SLP281
T12501283





000
SAUS43 KMQT 261354
MTRP59
METAR KP59 261351Z AUTO 36006KT M20/M23 A3030 RMK AO1 SLP293
T12001228





000
SAUS43 KMQT 261354
MTRP59
METAR KP59 261351Z AUTO 36006KT M20/M23 A3030 RMK AO1 SLP293
T12001228





000
SAUS43 KMQT 261257
MTRP53
METAR KP53 261256Z AUTO 18008KT M27/M31 A3027 RMK AO1 SLP274
T12721311





000
SAUS43 KMQT 261254
MTRP59
METAR KP59 261251Z AUTO 00000KT M23/M26 A3028 RMK AO1 SLP288
T12281261





000
SAUS43 KMQT 261254
MTRP59
METAR KP59 261251Z AUTO 00000KT M23/M26 A3028 RMK AO1 SLP288
T12281261





000
SAUS43 KMQT 261157
MTRP53
METAR KP53 261156Z AUTO 18007KT M27/M31 A3025 RMK AO1 SLP266 70001
T12721306 11233 21272 53009





000
SAUS43 KMQT 261157
MTRP53
METAR KP53 261156Z AUTO 18007KT M27/M31 A3025 RMK AO1 SLP266 70001
T12721306 11233 21272 53009





000
SAUS43 KMQT 261153
MTRP59
METAR KP59 261151Z AUTO 25004KT M22/M25 A3027 RMK AO1 SLP283 70001
T12221250 11161 21222 53007





000
SAUS43 KMQT 261153
MTRP59
METAR KP59 261151Z AUTO 25004KT M22/M25 A3027 RMK AO1 SLP283 70001
T12221250 11161 21222 53007





000
SAUS43 KMQT 261057
MTRP53
METAR KP53 261056Z AUTO 18007KT M27/M30 A3024 RMK AO1 SLP260
T12671300





000
SAUS43 KMQT 261057
MTRP53
METAR KP53 261056Z AUTO 18007KT M27/M30 A3024 RMK AO1 SLP260
T12671300





000
SAUS43 KMQT 261054
MTRP59
METAR KP59 261051Z AUTO 24003KT M22/M24 A3026 RMK AO1 SLP279
T12171244





000
SAUS43 KMQT 261054
MTRP59
METAR KP59 261051Z AUTO 24003KT M22/M24 A3026 RMK AO1 SLP279
T12171244





000
SAUS43 KMQT 260957
MTRP53
METAR KP53 260956Z AUTO 18006KT M26/M29 A3023 RMK AO1 SLP258
T12561294





000
SAUS43 KMQT 260957
MTRP53
METAR KP53 260956Z AUTO 18006KT M26/M29 A3023 RMK AO1 SLP258
T12561294





000
SAUS43 KMQT 260953
MTRP59
METAR KP59 260951Z AUTO 04004KT M17/M22 A3025 RMK AO1 SLP271
T11721217





000
SAUS43 KMQT 260953
MTRP59
METAR KP59 260951Z AUTO 04004KT M17/M22 A3025 RMK AO1 SLP271
T11721217





000
SAUS43 KMQT 260857
MTRP53
METAR KP53 260856Z AUTO 19005KT M25/M29 A3022 RMK AO1 SLP254
T12501289 51010





000
SAUS43 KMQT 260857
MTRP53
METAR KP53 260856Z AUTO 19005KT M25/M29 A3022 RMK AO1 SLP254
T12501289 51010





000
SAUS43 KMQT 260853
MTRP59
METAR KP59 260851Z AUTO 05005KT M17/M21 A3025 RMK AO1 SLP272
T11721206 51012





000
SAUS43 KMQT 260853
MTRP59
METAR KP59 260851Z AUTO 05005KT M17/M21 A3025 RMK AO1 SLP272
T11721206 51012





000
SAUS43 KMQT 260757
MTRP53
METAR KP53 260756Z AUTO 18005KT M25/M28 A3022 RMK AO1 SLP252
T12501283





000
SAUS43 KMQT 260752
MTRP59
METAR KP59 260751Z AUTO 02008KT M17/M22 A3024 RMK AO1 SLP270
T11721222





000
SAUS43 KMQT 260658
MTRP53
METAR KP53 260656Z AUTO 19004KT M24/M28 A3020 RMK AO1 SLP247
T12441278





000
SAUS43 KMQT 260658
MTRP53
METAR KP53 260656Z AUTO 19004KT M24/M28 A3020 RMK AO1 SLP247
T12441278





000
SAUS43 KMQT 260653
MTRP59
METAR KP59 260651Z AUTO 04010KT M17/M22 A3023 RMK AO1 SLP265
T11671222





000
SAUS43 KMQT 260653
MTRP59
METAR KP59 260651Z AUTO 04010KT M17/M22 A3023 RMK AO1 SLP265
T11671222





000
SAUS43 KMQT 260557
MTRP53
METAR KP53 260556Z AUTO 18003KT M24/M27 A3019 RMK AO1 SLP244
T12391272 11189 21239 51008





000
SAUS43 KMQT 260557
MTRP53
METAR KP53 260556Z AUTO 18003KT M24/M27 A3019 RMK AO1 SLP244
T12391272 11189 21239 51008





000
SAUS43 KMQT 260554
MTRP59
METAR KP59 260551Z AUTO 04010KT M16/M22 A3022 RMK AO1 SLP260
T11611222 11150 21189 51015





000
SAUS43 KMQT 260554
MTRP59
METAR KP59 260551Z AUTO 04010KT M16/M22 A3022 RMK AO1 SLP260
T11611222 11150 21189 51015





000
SAUS43 KMQT 260457
MTRP53
METAR KP53 260456Z AUTO 00000KT M22/M26 A3018 RMK AO1 SLP241
T12221256 411441228





000
SAUS43 KMQT 260457
MTRP53
METAR KP53 260456Z AUTO 00000KT M22/M26 A3018 RMK AO1 SLP241
T12221256 411441228





000
SAUS43 KMQT 260454
MTRP59
METAR KP59 260451Z AUTO 04010KT M16/M22 A3020 RMK AO1 SLP256
T11611217 411501194





000
SAUS43 KMQT 260454
MTRP59
METAR KP59 260451Z AUTO 04010KT M16/M22 A3020 RMK AO1 SLP256
T11611217 411501194





000
SAUS43 KMQT 260357
MTRP53
METAR KP53 260356Z AUTO 00000KT M22/M25 A3018 RMK AO1 SLP240
T12171250





000
SAUS43 KMQT 260258
MTRP53
METAR KP53 260256Z AUTO 36008KT M22/M26 A3017 RMK AO1 SLP236
T12221256 51016





000
SAUS43 KMQT 260258
MTRP53
METAR KP53 260256Z AUTO 36008KT M22/M26 A3017 RMK AO1 SLP236
T12221256 51016





000
SAUS43 KMQT 260254
MTRP59
METAR KP59 260251Z AUTO 35007KT M17/M21 A3017 RMK AO1 SLP246
T11721211 51016





000
SAUS43 KMQT 260254
MTRP59
METAR KP59 260251Z AUTO 35007KT M17/M21 A3017 RMK AO1 SLP246
T11721211 51016





000
SAUS43 KMQT 260157
MTRP53
METAR KP53 260156Z AUTO 02004KT M21/M25 A3016 RMK AO1 SLP233
T12061250





000
SAUS43 KMQT 260057
MTRP53
METAR KP53 260056Z AUTO 00000KT M21/M24 A3015 RMK AO1 SLP231
T12061239





000
SAUS43 KMQT 260052
MTRP59
METAR KP59 260051Z AUTO 31004KT M18/M23 A3015 RMK AO1 SLP239
T11831228





000
SAUS43 KMQT 260052
MTRP59
METAR KP59 260051Z AUTO 31004KT M18/M23 A3015 RMK AO1 SLP239
T11831228





000
SAUS43 KMQT 252357
MTRP53
METAR KP53 252356Z AUTO 36006KT M19/M22 A3012 RMK AO1 SLP220
T11891222 11150 21194 53017





000
SAUS43 KMQT 252357
MTRP53
METAR KP53 252356Z AUTO 36006KT M19/M22 A3012 RMK AO1 SLP220
T11891222 11150 21194 53017





000
SAUS43 KMQT 252354
MTRP59
METAR KP59 252351Z AUTO 31003KT M18/M23 A3012 RMK AO1 SLP229 60001
T11831228 11172 21189 53014





000
SAUS43 KMQT 252354
MTRP59
METAR KP59 252351Z AUTO 31003KT M18/M23 A3012 RMK AO1 SLP229 60001
T11831228 11172 21189 53014





000
SAUS43 KMQT 252257
MTRP53
METAR KP53 252256Z AUTO 34007KT M17/M22 A3009 RMK AO1 SLP208
T11721222





000
SAUS43 KMQT 252257
MTRP53
METAR KP53 252256Z AUTO 34007KT M17/M22 A3009 RMK AO1 SLP208
T11721222





000
SAUS43 KMQT 252254
MTRP59
METAR KP59 252251Z AUTO 36009KT M18/M23 A3010 RMK AO1 SLP221
T11781228





000
SAUS43 KMQT 252254
MTRP59
METAR KP59 252251Z AUTO 36009KT M18/M23 A3010 RMK AO1 SLP221
T11781228





000
SAUS43 KMQT 252157
MTRP53
METAR KP53 252156Z AUTO 33009KT M16/M22 A3008 RMK AO1 SLP204
T11611222





000
SAUS43 KMQT 252157
MTRP53
METAR KP53 252156Z AUTO 33009KT M16/M22 A3008 RMK AO1 SLP204
T11611222





000
SAUS43 KMQT 252154
MTRP59
METAR KP59 252151Z AUTO 35009KT M18/M23 A3009 RMK AO1 SLP219
T11781228





000
SAUS43 KMQT 252154
MTRP59
METAR KP59 252151Z AUTO 35009KT M18/M23 A3009 RMK AO1 SLP219
T11781228





000
SAUS43 KMQT 252057
MTRP53
METAR KP53 252056Z AUTO 34011KT M15/M22 A3007 RMK AO1 SLP199
T11501217 53012





000
SAUS43 KMQT 252054
MTRP59
METAR KP59 252051Z AUTO 36013KT M17/M23 A3008 RMK AO1 SLP214 60001
T11721228 53011





000
SAUS43 KMQT 252054
MTRP59
METAR KP59 252051Z AUTO 36013KT M17/M23 A3008 RMK AO1 SLP214 60001
T11721228 53011





000
SAUS43 KMQT 251957
MTRP53
METAR KP53 251956Z AUTO 35013G19KT M16/M22 A3005 RMK AO1 SLP194
T11561217





    US Dept of Commerce
    National Oceanic and Atmospheric Administration
    National Weather Service
    1325 East West Highway
    Silver Spring, MD 20910
    Page Author: NWS Internet Services Team
Disclaimer
Information Quality
Credits
Glossary
Privacy Policy
Freedom of Information Act (FOIA)
About Us
Career Opportunities